createdAt,value
2018-04-28T00:01:39.607Z,8.80
2018-04-28T00:03:43.946Z,10.07
2018-04-28T00:05:47.547Z,6.37
2018-04-28T00:07:51.231Z,10.37
2018-04-28T00:09:54.726Z,5.77
2018-04-28T00:11:58.364Z,8.93
2018-04-28T00:14:01.996Z,7.00
2018-04-28T00:16:10.488Z,7.43
2018-04-28T00:18:14.835Z,5.87
2018-04-28T00:20:29.088Z,7.17
2018-04-28T00:22:36.494Z,7.77
2018-04-28T00:24:43.038Z,5.43
2018-04-28T00:26:49.557Z,5.43
2018-04-28T00:28:57.715Z,5.13
2018-04-28T00:31:18.032Z,8.20
2018-04-28T00:33:23.539Z,6.07
2018-04-28T00:35:31.839Z,10.50
2018-04-28T00:37:41.297Z,6.37
2018-04-28T00:39:53.588Z,5.03
2018-04-28T00:41:57.179Z,7.97
2018-04-28T00:44:14.383Z,8.13
2018-04-28T00:46:28.789Z,6.10
2018-04-28T00:48:34.001Z,8.97
2018-04-28T00:50:42.935Z,9.20
2018-04-28T00:52:46.570Z,7.93
2018-04-28T00:54:50.167Z,7.03
2018-04-28T00:57:13.256Z,7.00
2018-04-28T00:59:22.547Z,7.47
2018-04-28T01:01:30.967Z,4.87
2018-04-28T01:03:41.738Z,6.60
2018-04-28T01:05:47.914Z,5.97
2018-04-28T01:08:00.444Z,5.83
2018-04-28T01:10:08.071Z,5.77
2018-04-28T01:12:11.627Z,8.73
2018-04-28T01:14:16.110Z,5.90
2018-04-28T01:16:20.506Z,8.23
2018-04-28T01:18:25.828Z,8.60
2018-04-28T01:20:32.054Z,8.50
2018-04-28T01:22:36.566Z,5.97
2018-04-28T01:24:46.227Z,4.77
2018-04-28T01:27:11.578Z,5.10
2018-04-28T01:29:18.676Z,4.50
2018-04-28T01:31:23.081Z,10.30
2018-04-28T01:33:48.135Z,5.77
2018-04-28T01:36:09.284Z,4.17
2018-04-28T01:38:14.306Z,6.13
2018-04-28T01:40:20.770Z,4.97
2018-04-28T01:42:41.883Z,6.23
2018-04-28T01:47:28.590Z,4.97
2018-04-28T01:49:32.920Z,5.47
2018-04-28T01:51:43.704Z,5.37
2018-04-28T01:56:37.566Z,5.10
2018-04-28T01:58:50.933Z,5.77
2018-04-28T02:01:07.036Z,3.97
2018-04-28T02:03:29.085Z,7.70
2018-04-28T02:05:36.410Z,7.20
2018-04-28T02:07:41.602Z,9.33
2018-04-28T02:09:46.049Z,6.67
2018-04-28T02:12:01.264Z,6.20
2018-04-28T02:14:21.458Z,10.00
2018-04-28T02:19:05.170Z,4.90
2018-04-28T02:21:08.824Z,4.73
2018-04-28T02:23:19.106Z,5.90
2018-04-28T02:25:25.241Z,4.60
2018-04-28T02:30:17.745Z,8.30
2018-04-28T02:32:21.275Z,7.93
2018-04-28T02:34:35.400Z,6.00
2018-04-28T02:36:50.744Z,4.83
2018-04-28T02:38:57.130Z,6.33
2018-04-28T02:41:18.461Z,8.17
2018-04-28T02:43:22.926Z,5.70
2018-04-28T02:45:31.490Z,4.90
2018-04-28T02:47:45.118Z,4.13
2018-04-28T02:49:56.528Z,3.83
2018-04-28T02:52:07.962Z,7.67
2018-04-28T02:54:13.143Z,4.00
2018-04-28T02:56:21.497Z,6.40
2018-04-28T03:01:37.654Z,5.00
2018-04-28T03:03:56.690Z,4.80
2018-04-28T03:06:05.843Z,4.77
2018-04-28T03:11:00.095Z,3.67
2018-04-28T03:13:03.376Z,8.07
2018-04-28T03:15:06.829Z,6.20
2018-04-28T03:19:44.406Z,4.77
2018-04-28T03:21:48.458Z,4.70
2018-04-28T03:23:52.441Z,3.37
2018-04-28T03:25:57.430Z,3.53
2018-04-28T03:28:01.508Z,3.80
2018-04-28T03:30:08.538Z,4.45
2018-04-28T03:32:11.798Z,7.00
2018-04-28T03:34:18.918Z,3.93
2018-04-28T03:36:28.206Z,5.73
2018-04-28T03:38:33.055Z,7.83
2018-04-28T03:40:39.040Z,6.47
2018-04-28T03:42:46.064Z,4.60
2018-04-28T03:44:50.147Z,4.10
2018-04-28T03:46:55.066Z,5.47
2018-04-28T03:49:00.248Z,8.50
2018-04-28T03:53:44.823Z,5.57
2018-04-28T03:55:48.081Z,4.23
2018-04-28T03:58:03.154Z,8.47
2018-04-28T04:00:18.359Z,8.73
2018-04-28T04:02:33.367Z,5.33
2018-04-28T04:04:47.240Z,10.43
2018-04-28T04:06:59.109Z,7.00
2018-04-28T04:09:18.848Z,4.77
2018-04-28T04:14:13.790Z,3.50
2018-04-28T04:16:25.642Z,3.63
2018-04-28T04:18:35.531Z,15.43
2018-04-28T04:20:48.522Z,7.47
2018-04-28T04:23:26.211Z,6.60
2018-04-28T04:25:40.939Z,10.40
2018-04-28T04:27:46.005Z,6.90
2018-04-28T04:29:56.717Z,5.73
2018-04-28T04:32:04.868Z,5.30
2018-04-28T04:34:24.420Z,7.50
2018-04-28T04:36:37.276Z,5.97
2018-04-28T04:38:42.250Z,5.47
2018-04-28T04:41:03.222Z,5.50
2018-04-28T04:43:07.974Z,6.77
2018-04-28T04:45:19.575Z,8.73
2018-04-28T04:47:47.365Z,4.57
2018-04-28T04:49:55.853Z,4.80
2018-04-28T04:52:10.944Z,7.03
2018-04-28T04:54:20.758Z,4.23
2018-04-28T04:59:05.705Z,5.67
2018-04-28T05:01:16.362Z,14.20
2018-04-28T05:03:28.174Z,11.77
2018-04-28T05:05:38.110Z,6.77
2018-04-28T05:07:47.126Z,5.10
2018-04-28T05:09:56.262Z,9.90
2018-04-28T05:12:09.945Z,7.53
2018-04-28T05:17:22.662Z,4.80
2018-04-28T05:22:26.638Z,8.03
2018-04-28T05:24:36.494Z,5.30
2018-04-28T05:26:48.574Z,4.97
2018-04-28T05:31:28.357Z,5.53
2018-04-28T05:36:50.578Z,5.83
2018-04-28T05:39:15.099Z,5.93
2018-04-28T05:41:30.065Z,7.43
2018-04-28T05:43:44.039Z,5.13
2018-04-28T05:45:59.099Z,8.87
2018-04-28T05:48:14.834Z,4.63
2018-04-28T05:50:29.923Z,5.67
2018-04-28T05:52:39.954Z,9.00
2018-04-28T05:54:54.075Z,7.53
2018-04-28T05:57:03.243Z,5.60
2018-04-28T05:59:18.153Z,5.03
2018-04-28T06:01:33.154Z,9.23
2018-04-28T06:06:47.613Z,7.47
2018-04-28T06:09:10.442Z,5.80
2018-04-28T06:11:17.363Z,7.27
2018-04-28T06:13:23.313Z,8.77
2018-04-28T06:15:42.243Z,6.93
2018-04-28T06:17:57.298Z,6.67
2018-04-28T06:22:40.025Z,8.37
2018-04-28T06:24:43.228Z,10.83
2018-04-28T06:26:47.256Z,8.80
2018-04-28T06:28:50.496Z,9.70
2018-04-28T06:30:53.778Z,11.50
2018-04-28T06:32:57.108Z,13.90
2018-04-28T06:35:00.365Z,9.53
2018-04-28T06:37:04.074Z,14.13
2018-04-28T06:39:07.506Z,12.40
2018-04-28T06:41:11.577Z,16.23
2018-04-28T06:43:14.890Z,12.30
2018-04-28T06:45:18.182Z,17.03
2018-04-28T06:47:21.928Z,15.93
2018-04-28T06:49:25.209Z,12.13
2018-04-28T06:51:28.502Z,11.07
2018-04-28T06:53:31.814Z,13.80
2018-04-28T06:55:39.620Z,10.53
2018-04-28T06:57:43.423Z,13.90
2018-04-28T06:59:46.797Z,12.43
2018-04-28T07:01:50.066Z,13.03
2018-04-28T07:03:54.048Z,12.97
2018-04-28T07:05:58.089Z,11.60
2018-04-28T07:08:02.607Z,13.57
2018-04-28T07:10:05.968Z,17.33
2018-04-28T07:12:10.019Z,11.47
2018-04-28T07:14:13.712Z,14.47
2018-04-28T07:16:16.998Z,17.10
2018-04-28T07:18:20.290Z,12.03
2018-04-28T07:20:24.179Z,19.67
2018-04-28T07:22:27.468Z,17.57
2018-04-28T07:24:30.763Z,16.40
2018-04-28T07:26:34.129Z,14.03
2018-04-28T07:28:38.305Z,14.10
2018-04-28T07:30:41.603Z,14.20
2018-04-28T07:32:46.819Z,15.23
2018-04-28T07:34:51.553Z,15.43
2018-04-28T07:36:54.935Z,13.10
2018-04-28T07:38:58.291Z,16.77
2018-04-28T07:41:01.617Z,13.33
2018-04-28T07:43:06.077Z,13.87
2018-04-28T07:45:10.181Z,11.27
2018-04-28T07:47:14.286Z,12.80
2018-04-28T07:49:18.495Z,14.63
2018-04-28T07:51:22.582Z,15.13
2018-04-28T07:53:25.843Z,13.73
2018-04-28T07:55:29.146Z,13.17
2018-04-28T07:57:32.600Z,13.60
2018-04-28T07:59:36.242Z,12.63
2018-04-28T08:01:39.925Z,12.33
2018-04-28T08:03:43.219Z,15.87
2018-04-28T08:05:46.561Z,15.50
2018-04-28T08:07:50.705Z,13.27
2018-04-28T08:09:54.498Z,13.33
2018-04-28T08:11:57.791Z,15.90
2018-04-28T08:14:01.118Z,14.17
2018-04-28T08:16:04.412Z,13.63
2018-04-28T08:18:07.720Z,11.40
2018-04-28T08:20:11.048Z,10.30
2018-04-28T08:22:14.506Z,13.07
2018-04-28T08:24:18.588Z,13.00
2018-04-28T08:26:22.258Z,15.03
2018-04-28T08:28:25.577Z,14.23
2018-04-28T08:30:28.975Z,11.93
2018-04-28T08:32:32.319Z,14.83
2018-04-28T08:34:35.900Z,14.10
2018-04-28T08:36:40.035Z,15.57
2018-04-28T08:38:43.378Z,14.87
2018-04-28T08:40:47.497Z,13.20
2018-04-28T08:42:50.795Z,12.73
2018-04-28T08:44:54.245Z,14.80
2018-04-28T08:46:57.463Z,15.13
2018-04-28T08:49:00.757Z,13.37
2018-04-28T08:51:04.841Z,16.60
2018-04-28T08:53:08.138Z,18.87
2018-04-28T08:55:11.495Z,18.17
2018-04-28T08:57:14.786Z,15.83
2018-04-28T08:59:18.049Z,10.37
2018-04-28T09:01:21.351Z,11.53
2018-04-28T09:03:24.646Z,11.80
2018-04-28T09:05:27.899Z,19.97
2018-04-28T09:07:40.087Z,13.90
2018-04-28T09:09:43.695Z,18.53
2018-04-28T09:11:47.211Z,16.57
2018-04-28T09:13:50.684Z,14.40
2018-04-28T09:15:54.223Z,16.30
2018-04-28T09:17:58.483Z,13.20
2018-04-28T09:20:03.114Z,13.80
2018-04-28T09:22:12.801Z,15.20
2018-04-28T09:24:18.368Z,14.77
2018-04-28T09:26:21.906Z,13.23
2018-04-28T09:28:25.483Z,16.93
2018-04-28T09:30:28.995Z,14.87
2018-04-28T09:32:32.966Z,16.57
2018-04-28T09:34:36.499Z,17.20
2018-04-28T09:36:40.033Z,12.57
2018-04-28T09:38:43.591Z,10.70
2018-04-28T09:40:47.094Z,15.33
2018-04-28T09:42:50.614Z,13.07
2018-04-28T09:44:54.106Z,16.07
2018-04-28T09:46:58.437Z,13.20
2018-04-28T09:49:02.013Z,15.83
2018-04-28T09:51:06.447Z,13.00
2018-04-28T09:53:10.011Z,8.90
2018-04-28T09:55:13.545Z,10.57
2018-04-28T09:57:17.127Z,11.30
2018-04-28T09:59:20.654Z,10.90
2018-04-28T10:01:24.211Z,9.10
2018-04-28T10:03:30.735Z,11.47
2018-04-28T10:05:34.270Z,13.67
2018-04-28T10:07:38.893Z,11.60
2018-04-28T10:09:42.590Z,11.00
2018-04-28T10:11:46.882Z,11.73
2018-04-28T10:13:51.259Z,11.77
2018-04-28T10:15:54.765Z,12.10
2018-04-28T10:17:58.407Z,10.63
2018-04-28T10:20:02.810Z,12.27
2018-04-28T10:22:07.024Z,9.30
2018-04-28T10:24:10.880Z,8.07
2018-04-28T10:26:14.887Z,10.80
2018-04-28T10:28:18.417Z,11.53
2018-04-28T10:30:21.951Z,10.57
2018-04-28T10:32:25.514Z,10.13
2018-04-28T10:34:29.002Z,8.43
2018-04-28T10:36:32.543Z,7.90
2018-04-28T10:38:36.043Z,9.20
2018-04-28T10:40:39.637Z,6.40
2018-04-28T10:42:43.178Z,10.00
2018-04-28T10:44:46.729Z,9.63
2018-04-28T10:46:50.251Z,10.13
2018-04-28T10:48:53.764Z,11.40
2018-04-28T10:50:57.390Z,7.10
2018-04-28T10:53:00.884Z,8.93
2018-04-28T10:55:05.633Z,8.50
2018-04-28T10:57:10.104Z,11.27
2018-04-28T10:59:13.614Z,10.23
2018-04-28T11:01:17.916Z,7.93
2018-04-28T11:03:22.240Z,8.63
2018-04-28T11:05:25.759Z,10.50
2018-04-28T11:07:29.305Z,8.13
2018-04-28T11:09:32.871Z,10.33
2018-04-28T11:11:36.408Z,7.90
2018-04-28T11:13:40.755Z,9.93
2018-04-28T11:15:44.234Z,9.50
2018-04-28T11:17:49.015Z,9.80
2018-04-28T11:19:52.585Z,10.53
2018-04-28T11:21:56.794Z,8.50
2018-04-28T11:24:00.702Z,8.77
2018-04-28T11:26:04.262Z,9.87
2018-04-28T11:28:08.498Z,10.37
2018-04-28T11:30:12.173Z,8.03
2018-04-28T11:32:16.532Z,8.93
2018-04-28T11:34:20.056Z,8.47
2018-04-28T11:36:23.606Z,12.20
2018-04-28T11:38:27.143Z,8.57
2018-04-28T11:40:30.690Z,10.10
2018-04-28T11:42:34.244Z,11.80
2018-04-28T11:44:37.759Z,11.67
2018-04-28T11:46:42.073Z,9.50
2018-04-28T11:48:46.691Z,8.67
2018-04-28T11:50:50.944Z,8.23
2018-04-28T11:52:54.446Z,10.60
2018-04-28T11:54:58.035Z,10.47
2018-04-28T11:57:01.595Z,9.60
2018-04-28T11:59:05.262Z,10.80
2018-04-28T12:01:08.729Z,8.53
2018-04-28T12:03:13.073Z,8.33
2018-04-28T12:05:16.645Z,11.27
2018-04-28T12:07:20.187Z,11.37
2018-04-28T12:09:24.427Z,8.13
2018-04-28T12:11:27.970Z,12.37
2018-04-28T12:13:31.517Z,5.70
2018-04-28T12:15:35.044Z,7.67
2018-04-28T12:17:38.634Z,4.87
2018-04-28T12:19:42.147Z,5.10
2018-04-28T12:21:45.801Z,4.80
2018-04-28T12:23:49.347Z,8.70
2018-04-28T12:25:52.827Z,7.67
2018-04-28T12:27:56.349Z,7.57
2018-04-28T12:30:00.686Z,10.80
2018-04-28T12:32:04.370Z,10.63
2018-04-28T12:34:07.871Z,10.07
2018-04-28T12:36:11.596Z,12.40
2018-04-28T12:38:15.826Z,13.17
2018-04-28T12:40:19.530Z,11.80
2018-04-28T12:42:23.062Z,12.07
2018-04-28T12:44:27.372Z,14.60
2018-04-28T12:46:31.313Z,11.20
2018-04-28T12:48:35.317Z,13.20
2018-04-28T12:50:39.267Z,11.50
2018-04-28T12:52:42.823Z,10.57
2018-04-28T12:54:46.315Z,7.97
2018-04-28T12:56:49.902Z,9.87
2018-04-28T12:58:53.420Z,8.20
2018-04-28T13:00:56.926Z,8.97
2018-04-28T13:03:00.483Z,9.20
2018-04-28T13:05:04.928Z,9.50
2018-04-28T13:07:08.480Z,7.57
2018-04-28T13:09:12.099Z,9.03
2018-04-28T13:11:15.598Z,9.23
2018-04-28T13:13:19.175Z,8.27
2018-04-28T13:15:23.453Z,7.30
2018-04-28T13:17:27.015Z,10.07
2018-04-28T13:19:31.300Z,7.80
2018-04-28T13:21:35.631Z,6.53
2018-04-28T13:23:39.126Z,6.87
2018-04-28T13:25:42.713Z,11.47
2018-04-28T13:27:46.221Z,11.53
2018-04-28T13:29:49.772Z,8.73
2018-04-28T13:31:53.269Z,6.53
2018-04-28T13:33:57.578Z,5.80
2018-04-28T13:36:01.171Z,6.10
2018-04-28T13:38:04.682Z,10.50
2018-04-28T13:40:08.987Z,6.20
2018-04-28T13:42:12.515Z,6.67
2018-04-28T13:44:16.449Z,9.83
2018-04-28T13:46:19.941Z,7.93
2018-04-28T13:48:23.441Z,5.73
2018-04-28T13:50:27.171Z,8.97
2018-04-28T13:52:30.697Z,8.47
2018-04-28T13:54:34.199Z,10.87
2018-04-28T13:56:37.758Z,8.27
2018-04-28T13:58:41.266Z,10.00
2018-04-28T14:00:45.547Z,11.20
2018-04-28T14:02:49.047Z,10.43
2018-04-28T14:04:52.546Z,9.20
2018-04-28T14:06:56.247Z,8.10
2018-04-28T14:09:00.580Z,8.60
2018-04-28T14:11:04.859Z,7.97
2018-04-28T14:13:08.443Z,7.27
2018-04-28T14:15:11.969Z,9.73
2018-04-28T14:17:15.506Z,6.17
2018-04-28T14:19:19.034Z,5.90
2018-04-28T14:21:22.592Z,6.70
2018-04-28T14:23:26.866Z,8.93
2018-04-28T14:25:30.452Z,4.77
2018-04-28T14:27:34.971Z,7.03
2018-04-28T14:29:38.496Z,13.27
2018-04-28T14:31:42.815Z,6.37
2018-04-28T14:33:47.155Z,8.77
2018-04-28T14:35:50.691Z,5.13
2018-04-28T14:37:54.200Z,9.00
2018-04-28T14:39:58.551Z,5.50
2018-04-28T14:42:02.089Z,8.47
2018-04-28T14:44:05.583Z,6.33
2018-04-28T14:46:09.199Z,8.57
2018-04-28T14:48:12.865Z,6.27
2018-04-28T14:50:16.378Z,5.93
2018-04-28T14:52:19.878Z,5.57
2018-04-28T14:54:23.853Z,4.40
2018-04-28T14:56:27.399Z,5.93
2018-04-28T14:58:30.939Z,7.63
2018-04-28T15:00:34.505Z,5.07
2018-04-28T15:02:38.071Z,4.47
2018-04-28T15:04:41.591Z,8.80
2018-04-28T15:06:45.842Z,4.87
2018-04-28T15:08:49.379Z,5.93
2018-04-28T15:10:52.899Z,5.00
2018-04-28T15:12:56.828Z,6.23
2018-04-28T15:15:00.345Z,8.13
2018-04-28T15:17:03.854Z,5.43
2018-04-28T15:19:07.388Z,3.73
2018-04-28T15:21:11.661Z,4.53
2018-04-28T15:23:15.194Z,5.33
2018-04-28T15:25:19.664Z,5.27
2018-04-28T15:27:23.176Z,5.63
2018-04-28T15:29:26.739Z,5.93
2018-04-28T15:31:30.277Z,5.03
2018-04-28T15:33:33.779Z,9.43
2018-04-28T15:35:37.650Z,6.10
2018-04-28T15:37:41.180Z,5.23
2018-04-28T15:39:45.475Z,7.07
2018-04-28T15:41:49.050Z,7.03
2018-04-28T15:43:52.578Z,6.13
2018-04-28T15:45:56.050Z,5.73
2018-04-28T15:47:59.978Z,7.13
2018-04-28T15:50:05.195Z,4.40
2018-04-28T15:52:08.680Z,6.17
2018-04-28T15:54:12.226Z,5.77
2018-04-28T15:56:15.787Z,5.97
2018-04-28T15:58:19.313Z,7.67
2018-04-28T16:00:22.888Z,7.73
2018-04-28T16:02:27.190Z,6.30
2018-04-28T16:04:30.728Z,5.03
2018-04-28T16:06:34.274Z,6.33
2018-04-28T16:08:37.768Z,8.33
2018-04-28T16:10:41.299Z,5.73
2018-04-28T16:12:45.580Z,5.07
2018-04-28T16:14:49.204Z,5.43
2018-04-28T16:16:53.498Z,5.13
2018-04-28T16:18:56.992Z,5.20
2018-04-28T16:21:00.485Z,4.60
2018-04-28T16:23:04.039Z,5.23
2018-04-28T16:25:07.606Z,4.67
2018-04-28T16:27:12.027Z,6.83
2018-04-28T16:29:15.471Z,7.43
2018-04-28T16:31:18.969Z,5.23
2018-04-28T16:33:22.541Z,7.37
2018-04-28T16:35:26.044Z,6.57
2018-04-28T16:37:29.571Z,5.10
2018-04-28T16:39:33.887Z,7.87
2018-04-28T16:41:38.134Z,5.67
2018-04-28T16:43:41.699Z,6.90
2018-04-28T16:45:45.228Z,7.23
2018-04-28T16:47:48.771Z,6.63
2018-04-28T16:49:52.431Z,6.53
2018-04-28T16:51:55.979Z,7.27
2018-04-28T16:54:00.297Z,7.37
2018-04-28T16:56:03.858Z,6.77
2018-04-28T16:58:07.370Z,7.53
2018-04-28T17:00:12.115Z,10.03
2018-04-28T17:02:16.407Z,6.00
2018-04-28T17:04:19.927Z,4.93
2018-04-28T17:06:24.224Z,5.23
2018-04-28T17:08:28.517Z,7.93
2018-04-28T17:10:32.031Z,8.27
2018-04-28T17:12:36.354Z,6.67
2018-04-28T17:14:40.609Z,6.70
2018-04-28T17:16:44.292Z,6.63
2018-04-28T17:18:47.784Z,6.93
2018-04-28T17:20:51.268Z,6.20
2018-04-28T17:22:54.836Z,6.07
2018-04-28T17:24:58.385Z,5.50
2018-04-28T17:27:01.882Z,8.47
2018-04-28T17:29:05.440Z,5.27
2018-04-28T17:31:09.732Z,6.30
2018-04-28T17:33:13.230Z,6.03
2018-04-28T17:35:16.755Z,8.87
2018-04-28T17:37:20.304Z,8.13
2018-04-28T17:39:23.801Z,7.33
2018-04-28T17:41:27.328Z,5.90
2018-04-28T17:43:31.610Z,6.73
2018-04-28T17:45:35.161Z,7.10
2018-04-28T17:47:38.797Z,4.93
2018-04-28T17:49:42.331Z,4.37
2018-04-28T17:51:46.610Z,7.13
2018-04-28T17:53:50.139Z,4.13
2018-04-28T17:55:54.415Z,4.00
2018-04-28T17:57:57.967Z,4.63
2018-04-28T18:00:01.508Z,8.07
2018-04-28T18:02:05.946Z,6.13
2018-04-28T18:04:09.461Z,8.90
2018-04-28T18:06:12.978Z,4.53
2018-04-28T18:08:16.483Z,5.80
2018-04-28T18:10:20.013Z,4.43
2018-04-28T18:12:23.514Z,7.53
2018-04-28T18:14:27.002Z,4.67
2018-04-28T18:16:30.519Z,7.00
2018-04-28T18:18:34.813Z,4.40
2018-04-28T18:20:38.359Z,4.23
2018-04-28T18:22:41.895Z,5.67
2018-04-28T18:24:45.415Z,5.20
2018-04-28T18:26:50.039Z,4.70
2018-04-28T18:28:54.318Z,4.57
2018-04-28T18:30:57.856Z,5.50
2018-04-28T18:33:02.168Z,4.17
2018-04-28T18:35:06.430Z,6.20
2018-04-28T18:37:11.167Z,4.60
2018-04-28T18:39:14.677Z,5.47
2018-04-28T18:41:18.211Z,5.37
2018-04-28T18:43:21.957Z,5.93
2018-04-28T18:45:26.254Z,5.27
2018-04-28T18:47:30.531Z,5.13
2018-04-28T18:49:34.412Z,4.80
2018-04-28T18:51:38.692Z,5.10
2018-04-28T18:53:43.113Z,4.53
2018-04-28T18:55:46.642Z,3.97
2018-04-28T18:57:50.914Z,4.60
2018-04-28T18:59:54.897Z,4.50
2018-04-28T19:01:58.433Z,4.40
2018-04-28T19:04:01.926Z,5.50
2018-04-28T19:06:05.490Z,4.77
2018-04-28T19:08:08.979Z,5.43
2018-04-28T19:10:12.478Z,4.80
2018-04-28T19:12:16.351Z,5.60
2018-04-28T19:14:19.898Z,5.43
2018-04-28T19:16:23.374Z,5.90
2018-04-28T19:18:26.915Z,5.60
2018-04-28T19:20:30.406Z,5.40
2018-04-28T19:22:33.953Z,7.53
2018-04-28T19:24:37.445Z,6.23
2018-04-28T19:26:41.102Z,6.23
2018-04-28T19:28:45.387Z,7.03
2018-04-28T19:30:48.888Z,7.93
2018-04-28T19:32:52.415Z,12.00
2018-04-28T19:34:55.915Z,5.87
2018-04-28T19:36:59.647Z,5.83
2018-04-28T19:39:03.891Z,6.23
2018-04-28T19:41:09.021Z,8.77
2018-04-28T19:43:13.776Z,10.47
2018-04-28T19:45:17.868Z,9.40
2018-04-28T19:47:21.461Z,7.97
2018-04-28T19:49:25.766Z,9.53
2018-04-28T19:51:29.334Z,8.37
2018-04-28T19:53:32.890Z,8.60
2018-04-28T19:55:36.398Z,7.97
2018-04-28T19:57:39.895Z,8.40
2018-04-28T19:59:43.447Z,13.90
2018-04-28T20:01:46.923Z,9.40
2018-04-28T20:03:50.426Z,8.43
2018-04-28T20:05:54.027Z,12.87
2018-04-28T20:07:58.342Z,9.17
2018-04-28T20:10:01.954Z,10.03
2018-04-28T20:12:05.447Z,11.83
2018-04-28T20:14:08.963Z,8.90
2018-04-28T20:16:12.514Z,18.93
2018-04-28T20:18:16.069Z,20.57
2018-04-28T20:20:19.617Z,12.13
2018-04-28T20:22:34.885Z,15.50
2018-04-28T20:24:50.284Z,13.50
2018-04-28T20:26:53.838Z,12.93
2018-04-28T20:28:57.354Z,11.63
2018-04-28T20:31:00.871Z,13.47
2018-04-28T20:33:04.434Z,12.70
2018-04-28T20:35:07.931Z,13.50
2018-04-28T20:37:11.451Z,14.10
2018-04-28T20:39:15.772Z,13.73
2018-04-28T20:41:19.325Z,15.67
2018-04-28T20:43:23.010Z,12.10
2018-04-28T20:45:26.568Z,13.33
2018-04-28T20:47:30.114Z,10.40
2018-04-28T20:49:33.678Z,11.57
2018-04-28T20:51:37.152Z,7.57
2018-04-28T20:53:40.641Z,6.27
2018-04-28T20:55:48.256Z,8.07
2018-04-28T20:57:53.062Z,7.00
2018-04-28T20:59:57.559Z,6.97
2018-04-28T21:02:01.091Z,7.17
2018-04-28T21:04:04.619Z,7.93
2018-04-28T21:06:08.134Z,7.40
2018-04-28T21:08:11.646Z,10.87
2018-04-28T21:10:16.067Z,10.83
2018-04-28T21:12:19.644Z,10.07
2018-04-28T21:14:23.143Z,10.70
2018-04-28T21:16:27.476Z,9.63
2018-04-28T21:18:31.754Z,8.37
2018-04-28T21:20:35.388Z,10.27
2018-04-28T21:22:42.034Z,11.33
2018-04-28T21:24:45.593Z,11.27
2018-04-28T21:26:49.496Z,7.80
2018-04-28T21:28:53.027Z,8.77
2018-04-28T21:30:56.529Z,10.87
2018-04-28T21:33:00.858Z,13.00
2018-04-28T21:35:05.786Z,12.40
2018-04-28T21:37:09.279Z,14.47
2018-04-28T21:39:12.852Z,15.73
2018-04-28T21:41:16.354Z,15.07
2018-04-28T21:43:20.631Z,13.13
2018-04-28T21:45:24.219Z,9.07
2018-04-28T21:47:28.497Z,8.63
2018-04-28T21:49:32.150Z,8.60
2018-04-28T21:51:35.667Z,7.83
2018-04-28T21:53:39.997Z,8.23
2018-04-28T21:55:43.591Z,10.83
2018-04-28T21:57:47.849Z,9.63
2018-04-28T21:59:51.352Z,9.67
2018-04-28T22:01:54.933Z,11.37
2018-04-28T22:03:58.459Z,10.50
2018-04-28T22:06:02.800Z,11.57
2018-04-28T22:08:07.149Z,10.80
2018-04-28T22:10:10.650Z,9.63
2018-04-28T22:12:14.254Z,12.20
2018-04-28T22:14:17.775Z,9.33
2018-04-28T22:16:21.780Z,11.40
2018-04-28T22:18:25.271Z,8.90
2018-04-28T22:20:28.808Z,9.87
2018-04-28T22:22:32.374Z,7.60
2018-04-28T22:24:35.910Z,8.53
2018-04-28T22:26:39.441Z,9.57
2018-04-28T22:28:42.943Z,9.00
2018-04-28T22:30:46.470Z,11.83
2018-04-28T22:32:50.827Z,11.00
2018-04-28T22:34:54.379Z,9.90
2018-04-28T22:36:58.682Z,12.13
2018-04-28T22:39:02.163Z,10.47
2018-04-28T22:41:05.789Z,10.57
2018-04-28T22:43:10.069Z,14.27
2018-04-28T22:45:13.541Z,10.53
2018-04-28T22:47:17.147Z,10.07
2018-04-28T22:49:20.652Z,11.37
2018-04-28T22:51:24.198Z,9.10
2018-04-28T22:53:27.750Z,10.70
2018-04-28T22:55:32.286Z,11.23
2018-04-28T22:57:36.621Z,13.57
2018-04-28T22:59:40.128Z,11.17
2018-04-28T23:01:43.672Z,8.60
2018-04-28T23:03:47.175Z,11.77
2018-04-28T23:05:50.781Z,10.47
2018-04-28T23:07:55.104Z,9.33
2018-04-28T23:09:59.397Z,7.93
2018-04-28T23:12:03.722Z,7.70
2018-04-28T23:14:08.027Z,7.73
2018-04-28T23:16:11.968Z,11.40
2018-04-28T23:18:15.546Z,8.30
2018-04-28T23:20:19.094Z,11.03
2018-04-28T23:22:22.683Z,13.60
2018-04-28T23:24:26.210Z,10.13
2018-04-28T23:26:29.728Z,8.97
2018-04-28T23:28:34.007Z,13.23
2018-04-28T23:30:37.511Z,14.77
2018-04-28T23:32:41.867Z,12.87
2018-04-28T23:34:45.519Z,13.40
2018-04-28T23:36:49.002Z,16.30
2018-04-28T23:38:52.512Z,13.00
2018-04-28T23:40:56.836Z,9.67
2018-04-28T23:43:01.112Z,11.93
2018-04-28T23:45:05.410Z,11.77
2018-04-28T23:47:09.041Z,9.63
2018-04-28T23:49:12.559Z,13.00
2018-04-28T23:51:16.844Z,9.93
2018-04-28T23:53:21.254Z,16.17
2018-04-28T23:55:24.816Z,19.87
2018-04-28T23:57:28.401Z,15.90
2018-04-28T23:59:32.068Z,14.40
